Terminal Aerodrome Forecast
Issued by NWS

Home | Current Version | Previous Version | Graphics & Text | Print | Product List | Glossary On
Versions: 1 2 3 4 5 6 7 8 9 10 11 12 13 14 15 16 17 18 19 20 21 22 23 24 25
659
FTUS43 KTOP 281120
TAFFOE
TAF
KFOE 281120Z 2812/2912 27012KT P6SM SCT025
      TEMPO 2812/2815 BKN020
     FM281600 31010KT P6SM SCT035 SCT100
     FM290000 01006KT P6SM SCT100
     FM290900 05009KT P6SM VCSH SCT022 BKN100=

USA.gov is the U.S. government's official web portal to all federal, state and local government web resources and services.